Time;durP1;ratioP1;P1;durP2;ratioP2;P2;SDS_P1;SDS_P2;PMS_P1;PMS_P2;Temp;Humidity;BMP_temperature;BMP_pressure;BME280_temperature;BME280_humidity;BME280_pressure;Samples;Min_cycle;Max_cycle;Signal;HPM_P1;HPM_P2
2023/06/01 00:02:06;;;;;;;;;;;;;;;;;;5052418;28;20560;-41
2023/06/01 05:10:10;;;;;;;;;;;;;;;;;;5067318;28;20048;-41
2023/06/01 05:12:36;;;;;;;;;;;;;;;;;;5069010;28;19916;-41
2023/06/01 05:15:02;;;;;;;;;;;;;;;;;;5068953;28;19908;-41
2023/06/01 05:17:28;;;;;;;;;;;;;;;;;;5068669;28;19913;-41
2023/06/01 05:19:53;;;;;;;;;;;;;;;;;;5068934;28;19912;-41
2023/06/01 05:22:20;;;;;;;;;;;;;;;;;;5069030;28;19913;-41
2023/06/01 05:24:46;;;;;;;;;;;;;;;;;;5050897;28;19991;-41
2023/06/01 05:27:14;;;;;;;;;;;;;;;;;;5066563;28;20030;-41
2023/06/01 05:29:40;;;;;;;;;;;;;;;;;;5048703;28;19924;-41
2023/06/01 05:32:05;;;;;;;;;;;;;;;;;;5048876;28;20128;-41
2023/06/01 05:34:32;;;;;;;;;;;;;;;;;;5048568;28;20454;-41
2023/06/01 05:36:59;;;;;;;;;;;;;;;;;;5061483;28;19917;-41
2023/06/01 05:39:28;;;;;;;;;;;;;;;;;;5068408;28;19966;-41
2023/06/01 05:41:53;;;;;;;;;;;;;;;;;;5068565;28;20412;-41
2023/06/01 05:44:20;;;;;;;;;;;;;;;;;;5066932;28;19916;-41
2023/06/01 05:46:47;;;;;;;;;;;;;;;;;;5057012;28;19917;-41
2023/06/01 05:49:13;;;;;;;;;;;;;;;;;;5067234;28;19983;-41
2023/06/01 05:51:40;;;;;;;;;;;;;;;;;;5060742;28;19944;-41
2023/06/01 05:54:06;;;;;;;;;;;;;;;;;;5065151;28;19917;-41
2023/06/01 05:56:32;;;;;;;;;;;;;;;;;;5049140;28;19913;-49
2023/06/01 05:58:57;;;;;;;;;;;;;;;;;;5056932;28;19912;-48
2023/06/01 06:01:24;;;;;;;;;;;;;;;;;;5053113;28;19919;-48
2023/06/01 06:03:50;;;;;;;;;;;;;;;;;;5049252;28;19920;-51
2023/06/01 06:06:17;;;;;;;;;;;;;;;;;;5062714;28;19967;-47
2023/06/01 06:08:43;;;;;;;;;;;;;;;;;;5062337;28;20303;-50
2023/06/01 06:11:08;;;;;;;;;;;;;;;;;;5050141;28;19917;-48
2023/06/01 06:13:34;;;;;;;;;;;;;;;;;;5059333;28;19917;-50
2023/06/01 06:16:00;;;;;;;;;;;;;;;;;;5059838;28;19916;-49
2023/06/01 06:18:26;;;;;;;;;;;;;;;;;;5062043;28;19997;-48
2023/06/01 06:20:52;;;;;;;;;;;;;;;;;;5069331;28;19959;-49
2023/06/01 06:23:18;;;;;;;;;;;;;;;;;;5069510;28;19912;-47
2023/06/01 06:25:44;;;;;;;;;;;;;;;;;;5069279;28;19917;-48
2023/06/01 06:28:10;;;;;;;;;;;;;;;;;;5051079;28;19931;-48
2023/06/01 06:30:36;;;;;;;;;;;;;;;;;;5070937;28;19909;-49
2023/06/01 06:33:02;;;;;;;;;;;;;;;;;;5057173;28;19918;-48
2023/06/01 06:35:28;;;;;;;;;;;;;;;;;;5073569;28;19920;-51
2023/06/01 06:37:54;;;;;;;;;;;;;;;;;;5064611;28;19909;-48
2023/06/01 06:40:21;;;;;;;;;;;;;;;;;;5068756;28;20411;-50
2023/06/01 06:42:47;;;;;;;;;;;;;;;;;;5057469;28;19992;-50
2023/06/01 06:45:13;;;;;;;;;;;;;;;;;;5072887;28;19920;-49
2023/06/01 06:47:39;;;;;;;;;;;;;;;;;;5075993;28;19908;-49
2023/06/01 06:50:07;;;;;;;;;;;;;;;;;;5080576;28;20418;-49
2023/06/01 06:52:33;;;;;;;;;;;;;;;;;;5069488;28;19940;-51
2023/06/01 06:54:59;;;;;;;;;;;;;;;;;;5062199;28;20009;-50
2023/06/01 06:57:25;;;;;;;;;;;;;;;;;;5069727;28;19916;-49
2023/06/01 06:59:50;;;;;;;;;;;;;;;;;;5069218;28;19912;-48
2023/06/01 07:02:16;;;;;;;;;;;;;;;;;;5069507;28;19931;-51
2023/06/01 07:04:42;;;;;;;;;;;;;;;;;;5068961;28;19999;-48
2023/06/01 07:07:08;;;;;;;;;;;;;;;;;;5069855;28;19917;-49
2023/06/01 07:09:34;;;;;;;;;;;;;;;;;;5066159;28;19977;-48
2023/06/01 07:12:00;;;;;;;;;;;;;;;;;;5069307;28;20054;-48
2023/06/01 07:14:26;;;;;;;;;;;;;;;;;;5069300;28;19944;-48
2023/06/01 07:16:52;;;;;;;;;;;;;;;;;;5073274;28;19939;-49
2023/06/01 07:19:18;;;;;;;;;;;;;;;;;;5073829;28;19912;-48
2023/06/01 07:21:44;;;;;;;;;;;;;;;;;;5068428;28;19912;-51
2023/06/01 07:24:10;;;;;;;;;;;;;;;;;;5069552;28;19917;-49
2023/06/01 07:26:36;;;;;;;;;;;;;;;;;;5069460;28;20299;-48
2023/06/01 07:29:03;;;;;;;;;;;;;;;;;;5069141;28;19912;-51
2023/06/01 07:31:29;;;;;;;;;;;;;;;;;;5069452;28;19919;-49
2023/06/01 07:33:57;;;;;;;;;;;;;;;;;;5066797;28;20430;-50
2023/06/01 07:36:23;;;;;;;;;;;;;;;;;;5049425;28;19913;-49
2023/06/01 07:38:50;;;;;;;;;;;;;;;;;;5049361;28;19913;-48
2023/06/01 07:41:16;;;;;;;;;;;;;;;;;;5049326;28;19909;-49
2023/06/01 07:43:42;;;;;;;;;;;;;;;;;;5049035;28;19919;-48
2023/06/01 07:46:08;;;;;;;;;;;;;;;;;;5049262;28;19909;-49
2023/06/01 07:48:37;;;;;;;;;;;;;;;;;;5048993;28;19954;-52
2023/06/01 07:51:03;;;;;;;;;;;;;;;;;;5049309;28;20326;-50
2023/06/01 07:53:29;;;;;;;;;;;;;;;;;;5050470;28;19916;-49
2023/06/01 07:55:56;;;;;;;;;;;;;;;;;;5062024;28;19920;-49
2023/06/01 07:58:22;;;;;;;;;;;;;;;;;;5085073;28;20366;-49
2023/06/01 08:00:48;;;;;;;;;;;;;;;;;;5089440;28;19985;-49
2023/06/01 08:03:14;;;;;;;;;;;;;;;;;;5088302;28;20013;-48
2023/06/01 08:05:41;;;;;;;;;;;;;;;;;;5089322;28;20565;-49
2023/06/01 08:08:07;;;;;;;;;;;;;;;;;;5091954;28;20015;-47
2023/06/01 08:10:33;;;;;;;;;;;;;;;;;;5089131;28;20383;-48
2023/06/01 08:12:59;;;;;;;;;;;;;;;;;;5072364;28;19908;-48
2023/06/01 08:15:29;;;;;;;;;;;;;;;;;;5072439;28;20383;-48
2023/06/01 08:17:55;;;;;;;;;;;;;;;;;;5072678;28;19913;-49
2023/06/01 08:20:22;;;;;;;;;;;;;;;;;;5072849;28;20391;-50
2023/06/01 08:22:48;;;;;;;;;;;;;;;;;;5072838;28;20007;-48
2023/06/01 08:25:14;;;;;;;;;;;;;;;;;;5071015;28;20091;-51
2023/06/01 08:27:42;;;;;;;;;;;;;;;;;;5072017;28;19913;-50
2023/06/01 08:30:08;;;;;;;;;;;;;;;;;;5071177;28;19915;-50
2023/06/01 08:32:34;;;;;;;;;;;;;;;;;;5071057;28;20375;-48
2023/06/01 08:35:00;;;;;;;;;;;;;;;;;;5079706;28;19916;-48
2023/06/01 08:37:26;;;;;;;;;;;;;;;;;;5069506;28;20326;-47
2023/06/01 08:39:52;;;;;;;;;;;;;;;;;;5064035;28;19913;-51
2023/06/01 08:42:18;;;;;;;;;;;;;;;;;;5072302;28;19935;-48
2023/06/01 08:44:44;;;;;;;;;;;;;;;;;;5069331;28;19917;-49
2023/06/01 08:47:10;;;;;;;;;;;;;;;;;;5081700;28;19987;-48
2023/06/01 08:49:36;;;;;;;;;;;;;;;;;;5069208;28;19916;-50
2023/06/01 08:52:02;;;;;;;;;;;;;;;;;;5070459;28;19987;-49
2023/06/01 08:54:30;;;;;;;;;;;;;;;;;;5069826;28;19908;-49
2023/06/01 08:56:56;;;;;;;;;;;;;;;;;;5065762;28;20478;-48
2023/06/01 08:59:22;;;;;;;;;;;;;;;;;;5067757;28;19912;-51
2023/06/01 09:01:50;;;;;;;;;;;;;;;;;;5062823;28;20227;-48
2023/06/01 09:04:17;;;;;;;;;;;;;;;;;;5053930;28;19970;-47
2023/06/01 09:06:43;;;;;;;;;;;;;;;;;;5085305;28;19920;-51
2023/06/01 09:09:12;;;;;;;;;;;;;;;;;;5068970;28;19912;-51
2023/06/01 09:11:38;;;;;;;;;;;;;;;;;;5070354;28;19948;-49
2023/06/01 09:14:04;;;;;;;;;;;;;;;;;;5070063;28;19908;-49
2023/06/01 09:16:30;;;;;;;;;;;;;;;;;;5071344;28;19926;-50
2023/06/01 09:18:56;;;;;;;;;;;;;;;;;;5069183;28;20375;-49
2023/06/01 09:21:22;;;;;;;;;;;;;;;;;;5080301;28;19916;-47
2023/06/01 09:23:48;;;;;;;;;;;;;;;;;;5070813;28;19973;-47
2023/06/01 09:26:14;;;;;;;;;;;;;;;;;;5071078;28;19909;-48
2023/06/01 09:28:40;;;;;;;;;;;;;;;;;;5069478;28;19959;-49
2023/06/01 09:31:06;;;;;;;;;;;;;;;;;;5064695;28;19948;-50
2023/06/01 09:33:32;;;;;;;;;;;;;;;;;;5051949;28;19916;-47
2023/06/01 09:35:57;;;;;;;;;;;;;;;;;;5062805;28;19944;-51
2023/06/01 09:38:23;;;;;;;;;;;;;;;;;;5063731;28;19916;-47
2023/06/01 09:40:49;;;;;;;;;;;;;;;;;;5069863;28;19958;-50
2023/06/01 09:43:15;;;;;;;;;;;;;;;;;;5070513;28;19909;-48
2023/06/01 09:45:41;;;;;;;;;;;;;;;;;;5069885;28;19919;-51
2023/06/01 09:48:07;;;;;;;;;;;;;;;;;;5070410;28;19954;-49
2023/06/01 09:50:33;;;;;;;;;;;;;;;;;;5070573;28;20018;-49
2023/06/01 09:52:59;;;;;;;;;;;;;;;;;;5089448;28;19923;-46
2023/06/01 09:55:25;;;;;;;;;;;;;;;;;;5076837;28;20009;-47
2023/06/01 09:57:51;;;;;;;;;;;;;;;;;;5063982;28;19974;-47
2023/06/01 10:00:17;;;;;;;;;;;;;;;;;;5062796;28;19912;-47
2023/06/01 10:02:43;;;;;;;;;;;;;;;;;;5069776;28;19928;-49
2023/06/01 10:05:10;;;;;;;;;;;;;;;;;;5060017;28;19920;-51
2023/06/01 10:07:38;;;;;;;;;;;;;;;;;;5069296;28;20392;-49
2023/06/01 10:10:04;;;;;;;;;;;;;;;;;;5067637;28;20569;-46
2023/06/01 10:12:30;;;;;;;;;;;;;;;;;;5067877;28;19924;-48
2023/06/01 10:14:57;;;;;;;;;;;;;;;;;;5069062;28;20388;-46
2023/06/01 10:17:23;;;;;;;;;;;;;;;;;;5063940;28;19921;-47
2023/06/01 10:19:49;;;;;;;;;;;;;;;;;;5067571;28;19922;-50
2023/06/01 10:22:15;;;;;;;;;;;;;;;;;;5067274;28;19940;-48
2023/06/01 10:24:42;;;;;;;;;;;;;;;;;;5064653;28;19917;-50
2023/06/01 10:27:08;;;;;;;;;;;;;;;;;;5079926;28;20345;-48
2023/06/01 10:29:34;;;;;;;;;;;;;;;;;;5060724;28;20272;-48
2023/06/01 10:32:01;;;;;;;;;;;;;;;;;;5049570;28;19920;-48
2023/06/01 10:34:27;;;;;;;;;;;;;;;;;;5055842;28;19923;-47
2023/06/01 10:36:53;;;;;;;;;;;;;;;;;;5064666;28;19912;-46
2023/06/01 10:39:19;;;;;;;;;;;;;;;;;;5071512;28;19912;-46
2023/06/01 10:41:45;;;;;;;;;;;;;;;;;;5065277;28;19951;-40
2023/06/01 10:44:11;;;;;;;;;;;;;;;;;;5056753;28;19940;-40
2023/06/01 10:46:37;;;;;;;;;;;;;;;;;;5069718;28;19947;-40
2023/06/01 10:49:03;;;;;;;;;;;;;;;;;;5066476;28;19955;-40
2023/06/01 10:51:29;;;;;;;;;;;;;;;;;;5069170;28;19912;-40
2023/06/01 10:53:55;;;;;;;;;;;;;;;;;;5068949;28;19916;-40
2023/06/01 10:56:22;;;;;;;;;;;;;;;;;;5061214;28;19917;-40
2023/06/01 10:58:48;;;;;;;;;;;;;;;;;;5062049;28;19913;-40
2023/06/01 11:01:14;;;;;;;;;;;;;;;;;;5053275;28;20344;-40
2023/06/01 11:03:40;;;;;;;;;;;;;;;;;;5049549;28;20003;-41
2023/06/01 11:06:07;;;;;;;;;;;;;;;;;;5060698;28;20066;-40
2023/06/01 11:08:33;;;;;;;;;;;;;;;;;;5069552;28;19916;-40
2023/06/01 11:11:03;;;;;;;;;;;;;;;;;;5068584;28;20035;-40
2023/06/01 11:13:29;;;;;;;;;;;;;;;;;;5066987;28;19923;-40
2023/06/01 11:15:56;;;;;;;;;;;;;;;;;;5069545;28;19920;-40
2023/06/01 11:18:22;;;;;;;;;;;;;;;;;;5067275;28;19916;-40
2023/06/01 11:20:49;;;;;;;;;;;;;;;;;;5068545;28;19908;-41
2023/06/01 11:23:15;;;;;;;;;;;;;;;;;;5065193;28;19985;-40
2023/06/01 11:25:41;;;;;;;;;;;;;;;;;;5066153;28;20380;-43
2023/06/01 11:28:08;;;;;;;;;;;;;;;;;;5065973;28;20323;-42
2023/06/01 11:30:33;;;;;;;;;;;;;;;;;;5032503;28;19923;-41
2023/06/01 11:32:59;;;;;;;;;;;;;;;;;;5066705;28;19921;-42
2023/06/01 11:35:26;;;;;;;;;;;;;;;;;;5058304;28;19912;-41
2023/06/01 11:37:52;;;;;;;;;;;;;;;;;;5065306;28;20252;-42
2023/06/01 11:40:20;;;;;;;;;;;;;;;;;;5066118;28;19923;-42
2023/06/01 11:42:47;;;;;;;;;;;;;;;;;;5070197;28;20011;-42
2023/06/01 11:45:13;;;;;;;;;;;;;;;;;;5064067;28;20334;-42
2023/06/01 11:47:39;;;;;;;;;;;;;;;;;;5058732;28;19922;-42
2023/06/01 11:50:06;;;;;;;;;;;;;;;;;;5063597;28;19974;-42
2023/06/01 11:52:32;;;;;;;;;;;;;;;;;;5067792;28;19999;-43
2023/06/01 11:54:58;;;;;;;;;;;;;;;;;;5050050;28;19916;-43
2023/06/01 11:57:24;;;;;;;;;;;;;;;;;;5064531;28;19919;-42
2023/06/01 11:59:50;;;;;;;;;;;;;;;;;;5061174;28;19928;-43
2023/06/01 12:02:16;;;;;;;;;;;;;;;;;;5051446;28;20003;-43
2023/06/01 12:04:43;;;;;;;;;;;;;;;;;;5064830;28;19923;-42
2023/06/01 12:07:09;;;;;;;;;;;;;;;;;;5066066;28;19916;-42
2023/06/01 12:09:35;;;;;;;;;;;;;;;;;;5054457;28;20015;-42
2023/06/01 12:12:01;;;;;;;;;;;;;;;;;;5038955;28;19928;-43
2023/06/01 12:14:27;;;;;;;;;;;;;;;;;;5071717;28;20284;-43
2023/06/01 12:16:53;;;;;;;;;;;;;;;;;;5071460;28;19924;-43
2023/06/01 12:19:19;;;;;;;;;;;;;;;;;;5070499;28;19912;-43
2023/06/01 12:21:45;;;;;;;;;;;;;;;;;;5071108;28;20404;-43
2023/06/01 12:24:12;;;;;;;;;;;;;;;;;;5064262;28;19947;-43
2023/06/01 12:26:38;;;;;;;;;;;;;;;;;;5060994;28;20392;-43
2023/06/01 12:29:05;;;;;;;;;;;;;;;;;;5069666;28;19991;-43
2023/06/01 12:31:31;;;;;;;;;;;;;;;;;;5065277;28;19964;-43
2023/06/01 12:33:57;;;;;;;;;;;;;;;;;;5067336;28;20689;-43
2023/06/01 12:36:23;;;;;;;;;;;;;;;;;;5071223;28;19920;-43
2023/06/01 12:38:49;;;;;;;;;;;;;;;;;;5054001;28;19912;-44
2023/06/01 12:41:17;;;;;;;;;;;;;;;;;;5090349;28;19931;-44
2023/06/01 12:43:43;;;;;;;;;;;;;;;;;;5058330;28;19959;-43
2023/06/01 12:46:10;;;;;;;;;;;;;;;;;;5088491;28;19952;-43
2023/06/01 12:48:36;;;;;;;;;;;;;;;;;;5055184;28;19912;-43
2023/06/01 12:51:02;;;;;;;;;;;;;;;;;;5053666;28;19912;-43
2023/06/01 12:53:28;;;;;;;;;;;;;;;;;;5083383;28;20443;-43
2023/06/01 12:55:54;;;;;;;;;;;;;;;;;;5070284;28;19923;-43
2023/06/01 12:58:20;;;;;;;;;;;;;;;;;;5068872;28;19955;-43
2023/06/01 13:00:46;;;;;;;;;;;;;;;;;;5064275;28;19956;-43
2023/06/01 13:03:13;;;;;;;;;;;;;;;;;;5044399;28;19943;-43
2023/06/01 13:05:39;;;;;;;;;;;;;;;;;;5084417;28;20382;-42
2023/06/01 13:08:05;;;;;;;;;;;;;;;;;;5055330;28;20440;-42
2023/06/01 13:10:31;;;;;;;;;;;;;;;;;;5073979;28;19912;-43
2023/06/01 13:12:57;;;;;;;;;;;;;;;;;;5077767;28;19912;-42
2023/06/01 13:15:23;;;;;;;;;;;;;;;;;;5050447;28;19952;-42
2023/06/01 13:17:49;;;;;;;;;;;;;;;;;;5050715;28;19912;-43
2023/06/01 13:20:16;;;;;;;;;;;;;;;;;;5050325;28;19913;-43
2023/06/01 13:22:42;;;;;;;;;;;;;;;;;;5057463;28;19923;-42
2023/06/01 13:25:08;;;;;;;;;;;;;;;;;;5069252;28;19916;-44
2023/06/01 13:27:34;;;;;;;;;;;;;;;;;;5045179;28;19927;-42
2023/06/01 13:30:01;;;;;;;;;;;;;;;;;;5073767;28;19924;-43
2023/06/01 13:32:27;;;;;;;;;;;;;;;;;;5084131;28;20370;-43
2023/06/01 13:34:53;;;;;;;;;;;;;;;;;;5069277;28;19916;-42
2023/06/01 13:37:19;;;;;;;;;;;;;;;;;;5068295;28;19916;-43
2023/06/01 13:39:45;;;;;;;;;;;;;;;;;;5069878;28;19908;-42
2023/06/01 13:42:11;;;;;;;;;;;;;;;;;;5069441;28;20003;-43
2023/06/01 13:44:37;;;;;;;;;;;;;;;;;;5059224;28;20364;-43
2023/06/01 13:47:04;;;;;;;;;;;;;;;;;;5060895;28;20549;-42
2023/06/01 13:49:30;;;;;;;;;;;;;;;;;;5088580;28;19916;-42
2023/06/01 13:51:56;;;;;;;;;;;;;;;;;;5051310;28;19908;-42
2023/06/01 13:54:23;;;;;;;;;;;;;;;;;;5069724;28;19912;-42
2023/06/01 13:56:49;;;;;;;;;;;;;;;;;;5068901;28;20391;-42
2023/06/01 13:59:15;;;;;;;;;;;;;;;;;;5068685;28;19913;-42
2023/06/01 14:01:41;;;;;;;;;;;;;;;;;;5062320;28;19935;-43
2023/06/01 14:04:07;;;;;;;;;;;;;;;;;;5068560;28;19908;-42
2023/06/01 14:06:34;;;;;;;;;;;;;;;;;;5068264;28;19909;-43
2023/06/01 14:09:00;;;;;;;;;;;;;;;;;;5050811;28;19916;-43
2023/06/01 14:11:27;;;;;;;;;;;;;;;;;;5069177;28;20414;-42
2023/06/01 14:13:53;;;;;;;;;;;;;;;;;;5049281;28;20396;-42
2023/06/01 14:16:19;;;;;;;;;;;;;;;;;;5061124;28;19927;-42
2023/06/01 14:18:45;;;;;;;;;;;;;;;;;;5031292;28;19920;-46
2023/06/01 14:21:11;;;;;;;;;;;;;;;;;;5048608;28;19974;-43
2023/06/01 14:23:37;;;;;;;;;;;;;;;;;;5068701;28;19908;-42
2023/06/01 14:26:02;;;;;;;;;;;;;;;;;;5065283;28;20009;-42
2023/06/01 14:28:29;;;;;;;;;;;;;;;;;;5076706;28;19912;-42
2023/06/01 14:30:55;;;;;;;;;;;;;;;;;;5083501;28;19935;-42
2023/06/01 14:33:21;;;;;;;;;;;;;;;;;;5072568;28;20395;-43
2023/06/01 14:35:47;;;;;;;;;;;;;;;;;;5076990;28;19922;-42
2023/06/01 14:38:13;;;;;;;;;;;;;;;;;;5068060;28;19983;-42
2023/06/01 14:40:39;;;;;;;;;;;;;;;;;;5064251;28;19956;-43
2023/06/01 14:43:05;;;;;;;;;;;;;;;;;;5052212;28;19919;-41
2023/06/01 14:45:31;;;;;;;;;;;;;;;;;;5060392;28;20007;-44
2023/06/01 14:47:57;;;;;;;;;;;;;;;;;;5067257;28;19970;-43
2023/06/01 14:50:23;;;;;;;;;;;;;;;;;;5074317;28;20294;-42
2023/06/01 14:52:49;;;;;;;;;;;;;;;;;;5081350;28;19920;-43
2023/06/01 14:55:16;;;;;;;;;;;;;;;;;;5060302;28;19912;-43
2023/06/01 14:57:42;;;;;;;;;;;;;;;;;;5066397;28;19959;-43
2023/06/01 15:00:08;;;;;;;;;;;;;;;;;;5061806;28;19949;-42
2023/06/01 15:02:34;;;;;;;;;;;;;;;;;;5032273;28;19923;-42
2023/06/01 15:05:00;;;;;;;;;;;;;;;;;;5060831;28;19920;-42
2023/06/01 15:07:27;;;;;;;;;;;;;;;;;;5065368;28;19912;-42
2023/06/01 15:09:53;;;;;;;;;;;;;;;;;;5062859;28;19920;-43
2023/06/01 15:12:19;;;;;;;;;;;;;;;;;;5063644;28;19924;-43
2023/06/01 15:14:45;;;;;;;;;;;;;;;;;;5041233;28;19912;-43
2023/06/01 15:17:11;;;;;;;;;;;;;;;;;;5050207;28;19916;-43
2023/06/01 15:19:37;;;;;;;;;;;;;;;;;;5068084;28;20268;-44
2023/06/01 15:22:04;;;;;;;;;;;;;;;;;;5065954;28;19938;-43
2023/06/01 15:24:30;;;;;;;;;;;;;;;;;;5056618;28;20343;-42
2023/06/01 15:26:56;;;;;;;;;;;;;;;;;;5054543;28;19988;-42
2023/06/01 15:29:22;;;;;;;;;;;;;;;;;;5061251;28;19912;-42
2023/06/01 15:31:48;;;;;;;;;;;;;;;;;;5056335;28;19999;-42
2023/06/01 15:34:14;;;;;;;;;;;;;;;;;;5053801;28;19932;-42
2023/06/01 15:36:40;;;;;;;;;;;;;;;;;;5040253;28;19970;-43
2023/06/01 15:39:06;;;;;;;;;;;;;;;;;;5058019;28;20372;-43
2023/06/01 15:41:32;;;;;;;;;;;;;;;;;;5055832;28;19948;-43
2023/06/01 15:43:58;;;;;;;;;;;;;;;;;;5071514;28;20271;-42
2023/06/01 15:46:24;;;;;;;;;;;;;;;;;;5061599;28;19917;-43
2023/06/01 15:48:50;;;;;;;;;;;;;;;;;;5039602;28;20506;-43
2023/06/01 15:51:16;;;;;;;;;;;;;;;;;;5060390;28;19936;-41
2023/06/01 15:53:42;;;;;;;;;;;;;;;;;;5067646;28;20449;-41
2023/06/01 15:56:08;;;;;;;;;;;;;;;;;;5057741;28;19916;-40
2023/06/01 15:58:34;;;;;;;;;;;;;;;;;;5069347;28;19990;-40
2023/06/01 16:01:00;;;;;;;;;;;;;;;;;;5067586;28;19916;-40
2023/06/01 16:03:26;;;;;;;;;;;;;;;;;;5073355;28;19935;-40
2023/06/01 16:05:52;;;;;;;;;;;;;;;;;;5066629;28;19908;-40
2023/06/01 16:08:18;;;;;;;;;;;;;;;;;;5079800;28;19914;-40
2023/06/01 16:10:44;;;;;;;;;;;;;;;;;;4995055;28;1775012;-40
2023/06/01 16:13:10;;;;;;;;;;;;;;;;;;5069329;28;19932;-40
2023/06/01 16:15:36;;;;;;;;;;;;;;;;;;5062443;28;19912;-41
2023/06/01 16:18:02;;;;;;;;;;;;;;;;;;5059284;28;19940;-40
2023/06/01 16:20:28;;;;;;;;;;;;;;;;;;5070381;28;19924;-40
2023/06/01 16:22:53;;;;;;;;;;;;;;;;;;5053097;28;19913;-40
2023/06/01 16:25:23;;;;;;;;;;;;;;;;;;5049740;28;19917;-40
2023/06/01 16:27:49;;;;;;;;;;;;;;;;;;5054729;28;20280;-40
2023/06/01 16:30:15;;;;;;;;;;;;;;;;;;5067425;28;19936;-40
2023/06/01 16:32:41;;;;;;;;;;;;;;;;;;5062471;28;20395;-40
2023/06/01 16:35:07;;;;;;;;;;;;;;;;;;5069738;28;19986;-40
2023/06/01 16:37:33;;;;;;;;;;;;;;;;;;5066690;28;19912;-40
2023/06/01 16:39:59;;;;;;;;;;;;;;;;;;5067219;28;19970;-40
2023/06/01 16:42:25;;;;;;;;;;;;;;;;;;5070093;28;19913;-40
2023/06/01 16:44:51;;;;;;;;;;;;;;;;;;5066492;28;20310;-42
2023/06/01 16:47:17;;;;;;;;;;;;;;;;;;5060385;28;19916;-46
2023/06/01 16:49:43;;;;;;;;;;;;;;;;;;5043075;28;19967;-46
2023/06/01 16:52:09;;;;;;;;;;;;;;;;;;5067386;28;19925;-46
2023/06/01 16:54:35;;;;;;;;;;;;;;;;;;5060969;28;19916;-46
2023/06/01 16:57:01;;;;;;;;;;;;;;;;;;5047704;28;19913;-45
2023/06/01 16:59:27;;;;;;;;;;;;;;;;;;5048668;28;20323;-47
2023/06/01 17:01:53;;;;;;;;;;;;;;;;;;5064532;28;19908;-45
2023/06/01 17:04:19;;;;;;;;;;;;;;;;;;5068122;28;19913;-46
2023/06/01 17:06:45;;;;;;;;;;;;;;;;;;5071742;28;20368;-46
2023/06/01 17:09:11;;;;;;;;;;;;;;;;;;5046620;28;20023;-46
2023/06/01 17:11:37;;;;;;;;;;;;;;;;;;5058859;28;19923;-39
2023/06/01 17:14:04;;;;;;;;;;;;;;;;;;5039310;28;20160;-39
2023/06/01 17:16:30;;;;;;;;;;;;;;;;;;5075554;28;19974;-39
2023/06/01 17:18:56;;;;;;;;;;;;;;;;;;5064005;28;19917;-39
2023/06/01 17:21:23;;;;;;;;;;;;;;;;;;5060926;28;20360;-40
2023/06/01 17:23:49;;;;;;;;;;;;;;;;;;5063473;28;19920;-39
2023/06/01 17:26:15;;;;;;;;;;;;;;;;;;5064660;28;19927;-40
2023/06/01 17:28:41;;;;;;;;;;;;;;;;;;5064454;28;19916;-40
2023/06/01 17:31:06;;;;;;;;;;;;;;;;;;5066130;28;19913;-39
2023/06/01 17:33:33;;;;;;;;;;;;;;;;;;5064673;28;19926;-39
2023/06/01 17:35:59;;;;;;;;;;;;;;;;;;5052353;28;19917;-39
2023/06/01 17:38:25;;;;;;;;;;;;;;;;;;5054243;28;19916;-39
2023/06/01 17:40:52;;;;;;;;;;;;;;;;;;5067407;28;20334;-39
2023/06/01 17:43:18;;;;;;;;;;;;;;;;;;5041021;28;19919;-39
2023/06/01 17:45:44;;;;;;;;;;;;;;;;;;5065089;28;19917;-39
2023/06/01 17:48:10;;;;;;;;;;;;;;;;;;5038740;28;19913;-39
2023/06/01 17:50:36;;;;;;;;;;;;;;;;;;5067262;28;19997;-39
2023/06/01 17:53:02;;;;;;;;;;;;;;;;;;5058533;28;20061;-39
2023/06/01 17:55:29;;;;;;;;;;;;;;;;;;5054157;28;19920;-39
2023/06/01 17:57:55;;;;;;;;;;;;;;;;;;5060334;28;20425;-39
2023/06/01 18:00:21;;;;;;;;;;;;;;;;;;5062334;28;19916;-39
2023/06/01 18:02:46;;;;;;;;;;;;;;;;;;5056712;28;19920;-40
2023/06/01 18:05:12;;;;;;;;;;;;;;;;;;5057901;28;20003;-39
2023/06/01 18:07:38;;;;;;;;;;;;;;;;;;5058682;28;19919;-39
2023/06/01 18:10:05;;;;;;;;;;;;;;;;;;5059509;28;19966;-39
2023/06/01 18:12:34;;;;;;;;;;;;;;;;;;5062797;28;19926;-39
2023/06/01 18:15:00;;;;;;;;;;;;;;;;;;5060876;28;20496;-39
2023/06/01 18:17:26;;;;;;;;;;;;;;;;;;5058338;28;19968;-39
2023/06/01 18:19:53;;;;;;;;;;;;;;;;;;5058241;28;19913;-39
2023/06/01 18:22:19;;;;;;;;;;;;;;;;;;5054720;28;19921;-39
2023/06/01 18:24:45;;;;;;;;;;;;;;;;;;5056748;28;19923;-39
2023/06/01 18:27:11;;;;;;;;;;;;;;;;;;5058077;28;19916;-40
2023/06/01 18:29:39;;;;;;;;;;;;;;;;;;5058348;28;19955;-39
2023/06/01 18:32:06;;;;;;;;;;;;;;;;;;5056571;28;20300;-39
2023/06/01 18:34:32;;;;;;;;;;;;;;;;;;5041810;28;19923;-39
2023/06/01 18:36:57;;;;;;;;;;;;;;;;;;5058449;28;20374;-39
2023/06/01 18:39:24;;;;;;;;;;;;;;;;;;5062407;28;20284;-39
2023/06/01 18:41:51;;;;;;;;;;;;;;;;;;5050998;28;19920;-39
2023/06/01 18:44:17;;;;;;;;;;;;;;;;;;5050355;28;20513;-39
2023/06/01 18:46:44;;;;;;;;;;;;;;;;;;5064333;28;19912;-39
2023/06/01 18:49:10;;;;;;;;;;;;;;;;;;5063472;28;20037;-39
2023/06/01 18:51:37;;;;;;;;;;;;;;;;;;5061573;28;19959;-39
2023/06/01 18:54:03;;;;;;;;;;;;;;;;;;5062704;28;19969;-39
2023/06/01 18:56:29;;;;;;;;;;;;;;;;;;5043598;28;20446;-39
2023/06/01 18:58:56;;;;;;;;;;;;;;;;;;5051807;28;20110;-39
2023/06/01 19:01:23;;;;;;;;;;;;;;;;;;5047495;28;19916;-39
2023/06/01 19:03:50;;;;;;;;;;;;;;;;;;5063388;28;19912;-39
2023/06/01 19:06:15;;;;;;;;;;;;;;;;;;5053300;28;19967;-39
2023/06/01 19:08:42;;;;;;;;;;;;;;;;;;5063265;28;20030;-39
2023/06/01 19:11:08;;;;;;;;;;;;;;;;;;5062207;28;19916;-39
2023/06/01 19:13:35;;;;;;;;;;;;;;;;;;5061247;28;20319;-39
2023/06/01 19:16:01;;;;;;;;;;;;;;;;;;5059579;28;20456;-39
2023/06/01 19:18:28;;;;;;;;;;;;;;;;;;5062058;28;19912;-39
2023/06/01 19:20:55;;;;;;;;;;;;;;;;;;5062982;28;19965;-39
2023/06/01 19:23:22;;;;;;;;;;;;;;;;;;5063596;28;19916;-39
2023/06/01 19:25:47;;;;;;;;;;;;;;;;;;5058987;28;19912;-39
2023/06/01 19:28:13;;;;;;;;;;;;;;;;;;5064685;28;19923;-39
2023/06/01 19:30:39;;;;;;;;;;;;;;;;;;5063156;28;20420;-39
2023/06/01 19:33:05;;;;;;;;;;;;;;;;;;5061988;28;20007;-39
2023/06/01 19:35:32;;;;;;;;;;;;;;;;;;5058455;28;20313;-39
2023/06/01 19:37:58;;;;;;;;;;;;;;;;;;5052571;28;19913;-39
2023/06/01 19:40:27;;;;;;;;;;;;;;;;;;5061414;28;19936;-39
2023/06/01 19:42:53;;;;;;;;;;;;;;;;;;5059829;28;19912;-39
2023/06/01 19:45:19;;;;;;;;;;;;;;;;;;5049550;28;20236;-39
2023/06/01 19:47:45;;;;;;;;;;;;;;;;;;5057053;28;19920;-39
2023/06/01 19:50:11;;;;;;;;;;;;;;;;;;5048771;28;19929;-39
2023/06/01 19:52:37;;;;;;;;;;;;;;;;;;5048491;28;19919;-39
2023/06/01 19:55:03;;;;;;;;;;;;;;;;;;5030695;28;19920;-39
2023/06/01 19:57:29;;;;;;;;;;;;;;;;;;5057442;28;20038;-39
2023/06/01 19:59:55;;;;;;;;;;;;;;;;;;5033604;28;19916;-39
2023/06/01 20:02:21;;;;;;;;;;;;;;;;;;5058663;28;20371;-40
2023/06/01 20:04:47;;;;;;;;;;;;;;;;;;5033334;28;19958;-39
2023/06/01 20:07:13;;;;;;;;;;;;;;;;;;5063814;28;20938;-39
2023/06/01 20:09:40;;;;;;;;;;;;;;;;;;5056137;28;19923;-39
2023/06/01 20:12:07;;;;;;;;;;;;;;;;;;5065145;28;19920;-39
2023/06/01 20:14:33;;;;;;;;;;;;;;;;;;5065776;28;19912;-39
2023/06/01 20:17:00;;;;;;;;;;;;;;;;;;5066448;28;19987;-39
2023/06/01 20:19:27;;;;;;;;;;;;;;;;;;5038964;28;19924;-39
2023/06/01 20:21:53;;;;;;;;;;;;;;;;;;5030673;28;20515;-39
2023/06/01 20:24:20;;;;;;;;;;;;;;;;;;5060827;28;19912;-39
2023/06/01 20:26:47;;;;;;;;;;;;;;;;;;5059595;28;19917;-39
2023/06/01 20:29:14;;;;;;;;;;;;;;;;;;5054581;28;20292;-39
2023/06/01 20:31:39;;;;;;;;;;;;;;;;;;5063404;28;19920;-39
2023/06/01 20:34:10;;;;;;;;;;;;;;;;;;5066942;28;20430;-39
2023/06/01 20:36:39;;;;;;;;;;;;;;;;;;5058665;28;20032;-39
2023/06/01 20:39:05;;;;;;;;;;;;;;;;;;5043563;28;19913;-39
2023/06/01 20:41:31;;;;;;;;;;;;;;;;;;5047027;28;20326;-39
2023/06/01 20:43:58;;;;;;;;;;;;;;;;;;5057544;28;20011;-39
2023/06/01 20:46:24;;;;;;;;;;;;;;;;;;5066876;28;19916;-39
2023/06/01 20:48:50;;;;;;;;;;;;;;;;;;5047556;28;19916;-39
2023/06/01 20:51:17;;;;;;;;;;;;;;;;;;5066567;28;19922;-39
2023/06/01 20:53:43;;;;;;;;;;;;;;;;;;5062562;28;19913;-39
2023/06/01 20:56:10;;;;;;;;;;;;;;;;;;5052660;28;20417;-39
2023/06/01 20:58:35;;;;;;;;;;;;;;;;;;5046438;28;20500;-39
2023/06/01 21:01:01;;;;;;;;;;;;;;;;;;5064696;28;19967;-39
2023/06/01 21:03:27;;;;;;;;;;;;;;;;;;5065078;28;19909;-39
2023/06/01 21:05:53;;;;;;;;;;;;;;;;;;5066800;28;19920;-39
2023/06/01 21:08:19;;;;;;;;;;;;;;;;;;5056793;28;19908;-39
2023/06/01 21:10:45;;;;;;;;;;;;;;;;;;5066203;28;20314;-39
2023/06/01 21:13:11;;;;;;;;;;;;;;;;;;5066039;28;20289;-39
2023/06/01 21:15:37;;;;;;;;;;;;;;;;;;5066058;28;20046;-39
2023/06/01 21:18:03;;;;;;;;;;;;;;;;;;5047984;28;19954;-39
2023/06/01 21:20:29;;;;;;;;;;;;;;;;;;5065181;28;19912;-39
2023/06/01 21:22:56;;;;;;;;;;;;;;;;;;5066050;28;20307;-39
2023/06/01 21:25:22;;;;;;;;;;;;;;;;;;5066218;28;19915;-39
2023/06/01 21:27:49;;;;;;;;;;;;;;;;;;5065257;28;19908;-39
2023/06/01 21:30:16;;;;;;;;;;;;;;;;;;5047998;28;20045;-39
2023/06/01 21:32:42;;;;;;;;;;;;;;;;;;5066555;28;19934;-39
2023/06/01 21:35:08;;;;;;;;;;;;;;;;;;5064958;28;19913;-39
2023/06/01 21:37:35;;;;;;;;;;;;;;;;;;5065852;28;19920;-39
2023/06/01 21:40:01;;;;;;;;;;;;;;;;;;5064910;28;19979;-39
2023/06/01 21:42:27;;;;;;;;;;;;;;;;;;5065979;28;20298;-39
2023/06/01 21:44:53;;;;;;;;;;;;;;;;;;5065464;28;19965;-39